Terminal Aerodrome Forecast
Issued by NWS

Home | Current Version | Previous Version | Text Only | Print | Product List | Glossary On
Versions: 1 2 3 4 5 6 7 8 9 10 11 12 13 14 15 16 17 18 19 20 21 22 23 24 25 26 27 28 29 30 31 32 33 34 35 36 37 38 39 40 41 42
000
FTUS41 KBOX 191501 AAA
TAFMHT
TAF AMD
KMHT 191501Z 1915/2012 03008KT P6SM FEW050 FEW200
     FM191800 07005KT P6SM SKC
     FM192100 13007KT P6SM SKC
     FM200300 00000KT P6SM SKC=

USA.gov is the U.S. government's official web portal to all federal, state and local government web resources and services.